sensor_id;sensor_type;location;lat;lon;timestamp;P1;durP1;ratioP1;P2;durP2;ratioP2
12290;SDS011;6208;48.956;9.076;2023-04-29T00:01:30;3.25;;;3.05;;
12290;SDS011;6208;48.956;9.076;2023-04-29T00:04:14;3.40;;;3.20;;
12290;SDS011;6208;48.956;9.076;2023-04-29T00:06:59;3.20;;;3.00;;
12290;SDS011;6208;48.956;9.076;2023-04-29T00:09:43;3.85;;;3.55;;
12290;SDS011;6208;48.956;9.076;2023-04-29T00:12:28;4.30;;;3.67;;
12290;SDS011;6208;48.956;9.076;2023-04-29T00:15:14;5.07;;;4.72;;
12290;SDS011;6208;48.956;9.076;2023-04-29T00:17:58;5.30;;;4.90;;
12290;SDS011;6208;48.956;9.076;2023-04-29T00:20:42;5.65;;;5.07;;
12290;SDS011;6208;48.956;9.076;2023-04-29T00:23:26;6.20;;;5.70;;
12290;SDS011;6208;48.956;9.076;2023-04-29T00:26:11;5.75;;;5.05;;
12290;SDS011;6208;48.956;9.076;2023-04-29T00:28:55;4.60;;;4.30;;
12290;SDS011;6208;48.956;9.076;2023-04-29T00:31:39;4.88;;;4.43;;
12290;SDS011;6208;48.956;9.076;2023-04-29T00:34:23;4.18;;;3.95;;
12290;SDS011;6208;48.956;9.076;2023-04-29T00:37:07;4.25;;;3.88;;
12290;SDS011;6208;48.956;9.076;2023-04-29T00:39:51;3.95;;;3.75;;
12290;SDS011;6208;48.956;9.076;2023-04-29T00:42:35;5.20;;;3.60;;
12290;SDS011;6208;48.956;9.076;2023-04-29T00:45:19;4.10;;;3.90;;
12290;SDS011;6208;48.956;9.076;2023-04-29T00:48:04;6.75;;;3.55;;
12290;SDS011;6208;48.956;9.076;2023-04-29T00:50:48;3.72;;;3.17;;
12290;SDS011;6208;48.956;9.076;2023-04-29T00:53:33;2.97;;;2.88;;
12290;SDS011;6208;48.956;9.076;2023-04-29T00:56:18;4.00;;;3.05;;
12290;SDS011;6208;48.956;9.076;2023-04-29T00:59:03;3.35;;;3.15;;
12290;SDS011;6208;48.956;9.076;2023-04-29T01:01:48;3.10;;;3.00;;
12290;SDS011;6208;48.956;9.076;2023-04-29T01:04:33;2.70;;;2.58;;
12290;SDS011;6208;48.956;9.076;2023-04-29T01:10:09;3.70;;;3.00;;
12290;SDS011;6208;48.956;9.076;2023-04-29T01:13:07;2.90;;;2.70;;
12290;SDS011;6208;48.956;9.076;2023-04-29T01:16:01;3.20;;;3.00;;
12290;SDS011;6208;48.956;9.076;2023-04-29T01:18:53;3.00;;;2.80;;
12290;SDS011;6208;48.956;9.076;2023-04-29T01:21:46;3.97;;;3.28;;
12290;SDS011;6208;48.956;9.076;2023-04-29T01:24:31;3.05;;;2.88;;
12290;SDS011;6208;48.956;9.076;2023-04-29T01:27:20;3.10;;;2.90;;
12290;SDS011;6208;48.956;9.076;2023-04-29T01:30:09;3.53;;;3.17;;
12290;SDS011;6208;48.956;9.076;2023-04-29T01:36:15;4.22;;;2.95;;
12290;SDS011;6208;48.956;9.076;2023-04-29T01:40:24;2.40;;;2.30;;
12290;SDS011;6208;48.956;9.076;2023-04-29T01:43:13;4.50;;;3.40;;
12290;SDS011;6208;48.956;9.076;2023-04-29T01:45:54;3.28;;;3.00;;
12290;SDS011;6208;48.956;9.076;2023-04-29T01:48:40;3.08;;;2.75;;
12290;SDS011;6208;48.956;9.076;2023-04-29T01:51:24;3.30;;;3.10;;
12290;SDS011;6208;48.956;9.076;2023-04-29T01:54:08;3.47;;;3.28;;
12290;SDS011;6208;48.956;9.076;2023-04-29T01:56:53;3.60;;;3.30;;
12290;SDS011;6208;48.956;9.076;2023-04-29T01:59:37;3.30;;;3.10;;
12290;SDS011;6208;48.956;9.076;2023-04-29T02:02:22;3.78;;;3.38;;
12290;SDS011;6208;48.956;9.076;2023-04-29T02:05:08;3.83;;;2.92;;
12290;SDS011;6208;48.956;9.076;2023-04-29T02:07:52;2.70;;;2.60;;
12290;SDS011;6208;48.956;9.076;2023-04-29T02:10:36;5.05;;;4.60;;
12290;SDS011;6208;48.956;9.076;2023-04-29T02:13:20;3.80;;;2.88;;
12290;SDS011;6208;48.956;9.076;2023-04-29T02:16:11;3.40;;;3.20;;
12290;SDS011;6208;48.956;9.076;2023-04-29T02:18:56;3.00;;;2.80;;
12290;SDS011;6208;48.956;9.076;2023-04-29T02:21:41;2.70;;;2.60;;
12290;SDS011;6208;48.956;9.076;2023-04-29T02:24:25;3.17;;;2.97;;
12290;SDS011;6208;48.956;9.076;2023-04-29T02:27:09;5.97;;;3.28;;
12290;SDS011;6208;48.956;9.076;2023-04-29T02:29:54;4.30;;;3.92;;
12290;SDS011;6208;48.956;9.076;2023-04-29T02:32:38;3.47;;;3.28;;
12290;SDS011;6208;48.956;9.076;2023-04-29T02:35:22;3.38;;;3.20;;
12290;SDS011;6208;48.956;9.076;2023-04-29T02:38:06;3.97;;;3.63;;
12290;SDS011;6208;48.956;9.076;2023-04-29T02:40:50;3.45;;;3.25;;
12290;SDS011;6208;48.956;9.076;2023-04-29T02:43:34;3.53;;;3.33;;
12290;SDS011;6208;48.956;9.076;2023-04-29T02:46:19;3.78;;;3.58;;
12290;SDS011;6208;48.956;9.076;2023-04-29T02:49:03;3.70;;;3.50;;
12290;SDS011;6208;48.956;9.076;2023-04-29T02:51:47;3.22;;;3.03;;
12290;SDS011;6208;48.956;9.076;2023-04-29T02:54:34;3.30;;;3.10;;
12290;SDS011;6208;48.956;9.076;2023-04-29T02:57:19;4.68;;;3.03;;
12290;SDS011;6208;48.956;9.076;2023-04-29T03:00:03;4.32;;;3.22;;
12290;SDS011;6208;48.956;9.076;2023-04-29T03:02:48;3.28;;;2.97;;
12290;SDS011;6208;48.956;9.076;2023-04-29T03:05:33;3.42;;;3.13;;
12290;SDS011;6208;48.956;9.076;2023-04-29T03:08:17;3.95;;;3.65;;
12290;SDS011;6208;48.956;9.076;2023-04-29T03:11:01;3.50;;;3.25;;
12290;SDS011;6208;48.956;9.076;2023-04-29T03:13:45;3.90;;;3.42;;
12290;SDS011;6208;48.956;9.076;2023-04-29T03:16:30;3.63;;;3.42;;
12290;SDS011;6208;48.956;9.076;2023-04-29T03:19:15;6.05;;;3.72;;
12290;SDS011;6208;48.956;9.076;2023-04-29T03:21:59;3.90;;;3.60;;
12290;SDS011;6208;48.956;9.076;2023-04-29T03:24:43;3.70;;;3.30;;
12290;SDS011;6208;48.956;9.076;2023-04-29T03:27:27;3.60;;;3.33;;
12290;SDS011;6208;48.956;9.076;2023-04-29T03:30:14;3.65;;;3.22;;
12290;SDS011;6208;48.956;9.076;2023-04-29T03:32:58;3.05;;;2.95;;
12290;SDS011;6208;48.956;9.076;2023-04-29T03:35:43;3.63;;;3.38;;
12290;SDS011;6208;48.956;9.076;2023-04-29T03:38:28;6.60;;;3.42;;
12290;SDS011;6208;48.956;9.076;2023-04-29T03:41:12;3.03;;;2.83;;
12290;SDS011;6208;48.956;9.076;2023-04-29T03:43:57;2.80;;;2.60;;
12290;SDS011;6208;48.956;9.076;2023-04-29T03:46:43;2.47;;;2.38;;
12290;SDS011;6208;48.956;9.076;2023-04-29T03:49:27;2.72;;;2.40;;
12290;SDS011;6208;48.956;9.076;2023-04-29T03:52:11;2.58;;;2.38;;
12290;SDS011;6208;48.956;9.076;2023-04-29T03:54:55;2.47;;;2.25;;
12290;SDS011;6208;48.956;9.076;2023-04-29T03:57:39;5.18;;;2.10;;
12290;SDS011;6208;48.956;9.076;2023-04-29T04:00:23;3.03;;;2.92;;
12290;SDS011;6208;48.956;9.076;2023-04-29T04:03:09;2.85;;;2.35;;
12290;SDS011;6208;48.956;9.076;2023-04-29T04:05:53;7.88;;;2.35;;
12290;SDS011;6208;48.956;9.076;2023-04-29T04:08:37;2.83;;;2.60;;
12290;SDS011;6208;48.956;9.076;2023-04-29T04:11:23;2.05;;;1.95;;
12290;SDS011;6208;48.956;9.076;2023-04-29T04:14:07;2.55;;;2.45;;
12290;SDS011;6208;48.956;9.076;2023-04-29T04:16:51;2.45;;;2.35;;
12290;SDS011;6208;48.956;9.076;2023-04-29T04:19:36;2.85;;;2.63;;
12290;SDS011;6208;48.956;9.076;2023-04-29T04:22:23;2.78;;;2.58;;
12290;SDS011;6208;48.956;9.076;2023-04-29T04:25:07;3.45;;;3.00;;
12290;SDS011;6208;48.956;9.076;2023-04-29T04:27:52;2.70;;;2.60;;
12290;SDS011;6208;48.956;9.076;2023-04-29T04:30:37;2.70;;;2.60;;
12290;SDS011;6208;48.956;9.076;2023-04-29T04:33:21;3.22;;;3.10;;
12290;SDS011;6208;48.956;9.076;2023-04-29T04:36:05;2.53;;;2.42;;
12290;SDS011;6208;48.956;9.076;2023-04-29T04:38:50;3.28;;;3.08;;
12290;SDS011;6208;48.956;9.076;2023-04-29T04:41:35;3.83;;;3.63;;
12290;SDS011;6208;48.956;9.076;2023-04-29T04:44:19;5.60;;;4.38;;
12290;SDS011;6208;48.956;9.076;2023-04-29T04:47:03;4.38;;;4.07;;
12290;SDS011;6208;48.956;9.076;2023-04-29T04:49:48;4.75;;;4.32;;
12290;SDS011;6208;48.956;9.076;2023-04-29T04:52:32;5.22;;;4.82;;
12290;SDS011;6208;48.956;9.076;2023-04-29T04:55:17;4.45;;;4.15;;
12290;SDS011;6208;48.956;9.076;2023-04-29T04:58:01;4.85;;;3.95;;
12290;SDS011;6208;48.956;9.076;2023-04-29T05:00:45;4.15;;;3.85;;
12290;SDS011;6208;48.956;9.076;2023-04-29T05:03:29;5.07;;;3.70;;
12290;SDS011;6208;48.956;9.076;2023-04-29T05:06:13;4.10;;;3.80;;
12290;SDS011;6208;48.956;9.076;2023-04-29T05:08:58;4.00;;;3.70;;
12290;SDS011;6208;48.956;9.076;2023-04-29T05:11:42;4.25;;;3.95;;
12290;SDS011;6208;48.956;9.076;2023-04-29T05:14:26;4.55;;;4.15;;
12290;SDS011;6208;48.956;9.076;2023-04-29T05:17:10;5.15;;;3.63;;
12290;SDS011;6208;48.956;9.076;2023-04-29T05:19:54;3.55;;;3.35;;
12290;SDS011;6208;48.956;9.076;2023-04-29T05:22:38;3.60;;;3.30;;
12290;SDS011;6208;48.956;9.076;2023-04-29T05:25:22;3.95;;;3.45;;
12290;SDS011;6208;48.956;9.076;2023-04-29T05:28:06;3.85;;;3.60;;
12290;SDS011;6208;48.956;9.076;2023-04-29T05:30:50;5.75;;;3.80;;
12290;SDS011;6208;48.956;9.076;2023-04-29T05:33:35;3.72;;;3.42;;
12290;SDS011;6208;48.956;9.076;2023-04-29T05:36:19;4.18;;;3.88;;
12290;SDS011;6208;48.956;9.076;2023-04-29T05:39:03;3.85;;;3.42;;
12290;SDS011;6208;48.956;9.076;2023-04-29T05:41:47;4.13;;;3.72;;
12290;SDS011;6208;48.956;9.076;2023-04-29T05:44:31;4.80;;;3.25;;
12290;SDS011;6208;48.956;9.076;2023-04-29T05:47:15;3.92;;;3.10;;
12290;SDS011;6208;48.956;9.076;2023-04-29T05:50:00;3.40;;;3.20;;
12290;SDS011;6208;48.956;9.076;2023-04-29T05:52:44;3.70;;;3.40;;
12290;SDS011;6208;48.956;9.076;2023-04-29T05:55:28;3.88;;;3.67;;
12290;SDS011;6208;48.956;9.076;2023-04-29T05:58:12;4.10;;;3.80;;
12290;SDS011;6208;48.956;9.076;2023-04-29T06:00:57;4.18;;;3.95;;
12290;SDS011;6208;48.956;9.076;2023-04-29T06:03:41;4.35;;;3.97;;
12290;SDS011;6208;48.956;9.076;2023-04-29T06:06:26;4.50;;;3.85;;
12290;SDS011;6208;48.956;9.076;2023-04-29T06:09:11;4.20;;;3.90;;
12290;SDS011;6208;48.956;9.076;2023-04-29T06:11:58;4.00;;;3.67;;
12290;SDS011;6208;48.956;9.076;2023-04-29T06:14:42;4.55;;;3.72;;
12290;SDS011;6208;48.956;9.076;2023-04-29T06:17:26;4.00;;;3.70;;
12290;SDS011;6208;48.956;9.076;2023-04-29T06:20:13;3.10;;;2.95;;
12290;SDS011;6208;48.956;9.076;2023-04-29T06:22:58;4.72;;;3.15;;
12290;SDS011;6208;48.956;9.076;2023-04-29T06:25:42;3.22;;;2.88;;
12290;SDS011;6208;48.956;9.076;2023-04-29T06:28:26;2.83;;;2.47;;
12290;SDS011;6208;48.956;9.076;2023-04-29T06:31:11;3.78;;;3.45;;
12290;SDS011;6208;48.956;9.076;2023-04-29T06:33:56;3.25;;;3.05;;
12290;SDS011;6208;48.956;9.076;2023-04-29T06:36:40;3.15;;;2.95;;
12290;SDS011;6208;48.956;9.076;2023-04-29T06:39:24;2.95;;;2.75;;
12290;SDS011;6208;48.956;9.076;2023-04-29T06:42:08;3.15;;;2.95;;
12290;SDS011;6208;48.956;9.076;2023-04-29T06:44:52;4.55;;;2.70;;
12290;SDS011;6208;48.956;9.076;2023-04-29T06:47:36;3.20;;;3.00;;
12290;SDS011;6208;48.956;9.076;2023-04-29T06:50:20;3.38;;;3.17;;
12290;SDS011;6208;48.956;9.076;2023-04-29T06:53:04;3.22;;;2.92;;
12290;SDS011;6208;48.956;9.076;2023-04-29T06:55:48;3.60;;;3.30;;
12290;SDS011;6208;48.956;9.076;2023-04-29T06:58:33;2.33;;;2.22;;
12290;SDS011;6208;48.956;9.076;2023-04-29T07:01:17;2.90;;;2.70;;
12290;SDS011;6208;48.956;9.076;2023-04-29T07:04:01;2.92;;;2.72;;
12290;SDS011;6208;48.956;9.076;2023-04-29T07:06:46;2.83;;;2.63;;
12290;SDS011;6208;48.956;9.076;2023-04-29T07:09:30;2.97;;;2.78;;
12290;SDS011;6208;48.956;9.076;2023-04-29T07:12:14;2.60;;;2.40;;
12290;SDS011;6208;48.956;9.076;2023-04-29T07:14:58;3.40;;;2.35;;
12290;SDS011;6208;48.956;9.076;2023-04-29T07:17:42;2.60;;;2.42;;
12290;SDS011;6208;48.956;9.076;2023-04-29T07:20:26;2.53;;;2.42;;
12290;SDS011;6208;48.956;9.076;2023-04-29T07:23:10;4.68;;;2.42;;
12290;SDS011;6208;48.956;9.076;2023-04-29T07:25:54;2.63;;;2.42;;
12290;SDS011;6208;48.956;9.076;2023-04-29T07:28:38;2.90;;;2.70;;
12290;SDS011;6208;48.956;9.076;2023-04-29T07:31:23;2.40;;;2.28;;
12290;SDS011;6208;48.956;9.076;2023-04-29T07:34:07;2.58;;;2.47;;
12290;SDS011;6208;48.956;9.076;2023-04-29T07:36:51;2.65;;;2.45;;
12290;SDS011;6208;48.956;9.076;2023-04-29T07:39:35;5.88;;;2.80;;
12290;SDS011;6208;48.956;9.076;2023-04-29T07:42:20;2.58;;;2.47;;
12290;SDS011;6208;48.956;9.076;2023-04-29T07:45:04;2.55;;;2.35;;
12290;SDS011;6208;48.956;9.076;2023-04-29T07:47:49;3.55;;;2.15;;
12290;SDS011;6208;48.956;9.076;2023-04-29T07:50:34;2.28;;;2.17;;
12290;SDS011;6208;48.956;9.076;2023-04-29T07:53:21;2.15;;;2.05;;
12290;SDS011;6208;48.956;9.076;2023-04-29T07:56:06;2.97;;;2.60;;
12290;SDS011;6208;48.956;9.076;2023-04-29T07:58:50;2.55;;;2.35;;
12290;SDS011;6208;48.956;9.076;2023-04-29T08:01:34;2.25;;;2.15;;
12290;SDS011;6208;48.956;9.076;2023-04-29T08:04:19;2.90;;;2.47;;
12290;SDS011;6208;48.956;9.076;2023-04-29T08:07:03;2.50;;;2.40;;
12290;SDS011;6208;48.956;9.076;2023-04-29T08:09:47;2.53;;;2.40;;
12290;SDS011;6208;48.956;9.076;2023-04-29T08:12:31;2.53;;;2.42;;
12290;SDS011;6208;48.956;9.076;2023-04-29T08:15:16;3.03;;;2.83;;
12290;SDS011;6208;48.956;9.076;2023-04-29T08:18:01;3.67;;;3.08;;
12290;SDS011;6208;48.956;9.076;2023-04-29T08:20:46;3.15;;;2.95;;
12290;SDS011;6208;48.956;9.076;2023-04-29T08:23:32;3.08;;;2.83;;
12290;SDS011;6208;48.956;9.076;2023-04-29T08:26:16;3.55;;;3.35;;
12290;SDS011;6208;48.956;9.076;2023-04-29T08:29:00;4.32;;;3.92;;
12290;SDS011;6208;48.956;9.076;2023-04-29T08:31:44;3.30;;;2.72;;
12290;SDS011;6208;48.956;9.076;2023-04-29T08:34:29;2.92;;;2.72;;
12290;SDS011;6208;48.956;9.076;2023-04-29T08:37:14;2.85;;;2.67;;
12290;SDS011;6208;48.956;9.076;2023-04-29T08:39:58;3.00;;;2.88;;
12290;SDS011;6208;48.956;9.076;2023-04-29T08:42:43;2.85;;;2.75;;
12290;SDS011;6208;48.956;9.076;2023-04-29T08:45:28;3.05;;;2.85;;
12290;SDS011;6208;48.956;9.076;2023-04-29T08:48:12;2.72;;;2.63;;
12290;SDS011;6208;48.956;9.076;2023-04-29T08:50:58;2.75;;;2.65;;
12290;SDS011;6208;48.956;9.076;2023-04-29T08:53:43;2.80;;;2.35;;
12290;SDS011;6208;48.956;9.076;2023-04-29T08:56:27;2.60;;;2.50;;
12290;SDS011;6208;48.956;9.076;2023-04-29T08:59:14;3.20;;;2.90;;
12290;SDS011;6208;48.956;9.076;2023-04-29T09:01:59;3.28;;;3.08;;
12290;SDS011;6208;48.956;9.076;2023-04-29T09:04:49;3.15;;;2.95;;
12290;SDS011;6208;48.956;9.076;2023-04-29T09:07:40;3.55;;;3.35;;
12290;SDS011;6208;48.956;9.076;2023-04-29T09:10:25;3.50;;;3.20;;
12290;SDS011;6208;48.956;9.076;2023-04-29T09:13:21;2.70;;;2.60;;
12290;SDS011;6208;48.956;9.076;2023-04-29T09:16:10;5.57;;;3.83;;
12290;SDS011;6208;48.956;9.076;2023-04-29T09:18:55;3.50;;;3.25;;
12290;SDS011;6208;48.956;9.076;2023-04-29T09:21:40;3.58;;;3.28;;
12290;SDS011;6208;48.956;9.076;2023-04-29T09:24:28;3.60;;;3.10;;
12290;SDS011;6208;48.956;9.076;2023-04-29T09:27:25;3.67;;;3.38;;
12290;SDS011;6208;48.956;9.076;2023-04-29T09:30:10;3.25;;;3.05;;
12290;SDS011;6208;48.956;9.076;2023-04-29T09:33:02;3.40;;;3.20;;
12290;SDS011;6208;48.956;9.076;2023-04-29T09:35:48;3.03;;;2.83;;
12290;SDS011;6208;48.956;9.076;2023-04-29T09:38:32;3.65;;;3.30;;
12290;SDS011;6208;48.956;9.076;2023-04-29T09:41:16;3.30;;;3.10;;
12290;SDS011;6208;48.956;9.076;2023-04-29T09:44:03;3.28;;;3.08;;
12290;SDS011;6208;48.956;9.076;2023-04-29T09:46:53;3.58;;;3.38;;
12290;SDS011;6208;48.956;9.076;2023-04-29T09:49:43;3.85;;;3.65;;
12290;SDS011;6208;48.956;9.076;2023-04-29T09:52:28;3.40;;;3.20;;
12290;SDS011;6208;48.956;9.076;2023-04-29T09:55:25;3.33;;;3.13;;
12290;SDS011;6208;48.956;9.076;2023-04-29T09:58:12;3.35;;;3.15;;
12290;SDS011;6208;48.956;9.076;2023-04-29T10:01:16;3.42;;;3.15;;
12290;SDS011;6208;48.956;9.076;2023-04-29T10:04:04;3.28;;;3.08;;
12290;SDS011;6208;48.956;9.076;2023-04-29T10:06:52;4.13;;;3.60;;
12290;SDS011;6208;48.956;9.076;2023-04-29T10:09:37;3.95;;;3.65;;
12290;SDS011;6208;48.956;9.076;2023-04-29T10:12:23;4.93;;;3.45;;
12290;SDS011;6208;48.956;9.076;2023-04-29T10:18:19;3.92;;;3.53;;
12290;SDS011;6208;48.956;9.076;2023-04-29T10:21:06;3.38;;;3.17;;
12290;SDS011;6208;48.956;9.076;2023-04-29T10:23:55;3.33;;;3.13;;
12290;SDS011;6208;48.956;9.076;2023-04-29T10:26:40;4.10;;;3.80;;
12290;SDS011;6208;48.956;9.076;2023-04-29T10:29:26;4.20;;;3.90;;
12290;SDS011;6208;48.956;9.076;2023-04-29T10:32:14;4.60;;;4.30;;
12290;SDS011;6208;48.956;9.076;2023-04-29T10:34:59;3.33;;;3.13;;
12290;SDS011;6208;48.956;9.076;2023-04-29T10:37:45;3.63;;;3.05;;
12290;SDS011;6208;48.956;9.076;2023-04-29T10:40:38;5.63;;;5.18;;
12290;SDS011;6208;48.956;9.076;2023-04-29T10:43:26;6.13;;;5.57;;
12290;SDS011;6208;48.956;9.076;2023-04-29T10:46:17;6.10;;;5.40;;
12290;SDS011;6208;48.956;9.076;2023-04-29T10:49:03;6.75;;;6.03;;
12290;SDS011;6208;48.956;9.076;2023-04-29T10:51:49;5.95;;;5.40;;
12290;SDS011;6208;48.956;9.076;2023-04-29T10:54:34;6.68;;;5.40;;
12290;SDS011;6208;48.956;9.076;2023-04-29T10:57:21;6.13;;;5.63;;
12290;SDS011;6208;48.956;9.076;2023-04-29T11:00:05;6.43;;;5.82;;
12290;SDS011;6208;48.956;9.076;2023-04-29T11:03:04;6.07;;;5.55;;
12290;SDS011;6208;48.956;9.076;2023-04-29T11:06:02;7.30;;;6.60;;
12290;SDS011;6208;48.956;9.076;2023-04-29T11:08:58;8.68;;;6.63;;
12290;SDS011;6208;48.956;9.076;2023-04-29T11:11:48;7.47;;;6.72;;
12290;SDS011;6208;48.956;9.076;2023-04-29T11:14:51;10.30;;;6.50;;
12290;SDS011;6208;48.956;9.076;2023-04-29T11:17:37;7.90;;;7.22;;
12290;SDS011;6208;48.956;9.076;2023-04-29T11:20:21;9.57;;;7.53;;
12290;SDS011;6208;48.956;9.076;2023-04-29T11:23:05;7.75;;;7.05;;
12290;SDS011;6208;48.956;9.076;2023-04-29T11:25:49;7.20;;;6.55;;
12290;SDS011;6208;48.956;9.076;2023-04-29T11:28:33;7.75;;;7.05;;
12290;SDS011;6208;48.956;9.076;2023-04-29T11:31:18;7.90;;;7.20;;
12290;SDS011;6208;48.956;9.076;2023-04-29T11:34:03;7.88;;;6.93;;
12290;SDS011;6208;48.956;9.076;2023-04-29T11:36:49;8.40;;;7.43;;
12290;SDS011;6208;48.956;9.076;2023-04-29T11:39:34;7.97;;;7.10;;
12290;SDS011;6208;48.956;9.076;2023-04-29T11:42:19;9.20;;;7.13;;
12290;SDS011;6208;48.956;9.076;2023-04-29T11:45:06;7.90;;;7.20;;
12290;SDS011;6208;48.956;9.076;2023-04-29T11:47:50;7.50;;;6.80;;
12290;SDS011;6208;48.956;9.076;2023-04-29T11:50:35;7.70;;;7.10;;
12290;SDS011;6208;48.956;9.076;2023-04-29T11:53:19;7.80;;;7.10;;
12290;SDS011;6208;48.956;9.076;2023-04-29T11:56:04;8.05;;;7.25;;
12290;SDS011;6208;48.956;9.076;2023-04-29T11:58:49;8.32;;;7.35;;
12290;SDS011;6208;48.956;9.076;2023-04-29T12:01:36;8.52;;;7.72;;
12290;SDS011;6208;48.956;9.076;2023-04-29T12:04:20;9.77;;;7.88;;
12290;SDS011;6208;48.956;9.076;2023-04-29T12:07:04;8.25;;;7.45;;
12290;SDS011;6208;48.956;9.076;2023-04-29T12:09:53;6.63;;;6.15;;
12290;SDS011;6208;48.956;9.076;2023-04-29T12:12:38;6.90;;;6.35;;
12290;SDS011;6208;48.956;9.076;2023-04-29T12:15:24;9.38;;;6.30;;
12290;SDS011;6208;48.956;9.076;2023-04-29T12:18:09;5.55;;;5.15;;
12290;SDS011;6208;48.956;9.076;2023-04-29T12:20:53;6.38;;;5.85;;
12290;SDS011;6208;48.956;9.076;2023-04-29T12:23:39;6.65;;;6.10;;
12290;SDS011;6208;48.956;9.076;2023-04-29T12:26:26;7.07;;;5.63;;
12290;SDS011;6208;48.956;9.076;2023-04-29T12:29:11;6.70;;;6.20;;
12290;SDS011;6208;48.956;9.076;2023-04-29T12:31:56;6.38;;;5.88;;
12290;SDS011;6208;48.956;9.076;2023-04-29T12:34:40;7.10;;;6.50;;
12290;SDS011;6208;48.956;9.076;2023-04-29T12:37:24;6.70;;;6.10;;
12290;SDS011;6208;48.956;9.076;2023-04-29T12:40:13;6.90;;;6.22;;
12290;SDS011;6208;48.956;9.076;2023-04-29T12:43:05;7.15;;;6.55;;
12290;SDS011;6208;48.956;9.076;2023-04-29T12:45:52;7.18;;;6.57;;
12290;SDS011;6208;48.956;9.076;2023-04-29T12:48:47;7.35;;;6.65;;
12290;SDS011;6208;48.956;9.076;2023-04-29T12:51:32;7.32;;;6.72;;
12290;SDS011;6208;48.956;9.076;2023-04-29T12:54:19;7.45;;;6.75;;
12290;SDS011;6208;48.956;9.076;2023-04-29T12:57:03;7.63;;;6.93;;
12290;SDS011;6208;48.956;9.076;2023-04-29T12:59:48;7.57;;;6.78;;
12290;SDS011;6208;48.956;9.076;2023-04-29T13:02:32;7.22;;;6.45;;
12290;SDS011;6208;48.956;9.076;2023-04-29T13:05:19;7.57;;;6.95;;
12290;SDS011;6208;48.956;9.076;2023-04-29T13:08:05;6.72;;;6.13;;
12290;SDS011;6208;48.956;9.076;2023-04-29T13:10:49;6.65;;;6.05;;
12290;SDS011;6208;48.956;9.076;2023-04-29T13:13:34;7.70;;;6.97;;
12290;SDS011;6208;48.956;9.076;2023-04-29T13:16:18;8.45;;;7.65;;
12290;SDS011;6208;48.956;9.076;2023-04-29T13:19:02;7.68;;;6.60;;
12290;SDS011;6208;48.956;9.076;2023-04-29T13:21:46;7.53;;;6.20;;
12290;SDS011;6208;48.956;9.076;2023-04-29T13:24:31;7.25;;;6.65;;
12290;SDS011;6208;48.956;9.076;2023-04-29T13:27:16;6.80;;;6.10;;
12290;SDS011;6208;48.956;9.076;2023-04-29T13:30:00;7.03;;;6.43;;
12290;SDS011;6208;48.956;9.076;2023-04-29T13:32:45;8.68;;;6.80;;
12290;SDS011;6208;48.956;9.076;2023-04-29T13:35:29;7.00;;;6.40;;
12290;SDS011;6208;48.956;9.076;2023-04-29T13:38:14;7.20;;;6.50;;
12290;SDS011;6208;48.956;9.076;2023-04-29T13:40:58;7.47;;;6.60;;
12290;SDS011;6208;48.956;9.076;2023-04-29T13:43:43;7.43;;;6.72;;
12290;SDS011;6208;48.956;9.076;2023-04-29T13:46:28;7.93;;;7.22;;
12290;SDS011;6208;48.956;9.076;2023-04-29T13:49:12;6.78;;;6.15;;
12290;SDS011;6208;48.956;9.076;2023-04-29T13:51:56;6.55;;;6.03;;
12290;SDS011;6208;48.956;9.076;2023-04-29T13:54:40;7.70;;;7.10;;
12290;SDS011;6208;48.956;9.076;2023-04-29T13:57:25;6.72;;;5.90;;
12290;SDS011;6208;48.956;9.076;2023-04-29T14:00:10;6.18;;;5.57;;
12290;SDS011;6208;48.956;9.076;2023-04-29T14:02:55;6.18;;;5.63;;
12290;SDS011;6208;48.956;9.076;2023-04-29T14:05:40;6.97;;;6.30;;
12290;SDS011;6208;48.956;9.076;2023-04-29T14:08:24;8.07;;;5.82;;
12290;SDS011;6208;48.956;9.076;2023-04-29T14:11:08;7.00;;;5.80;;
12290;SDS011;6208;48.956;9.076;2023-04-29T14:13:52;7.07;;;6.38;;
12290;SDS011;6208;48.956;9.076;2023-04-29T14:16:36;6.25;;;5.68;;
12290;SDS011;6208;48.956;9.076;2023-04-29T14:19:21;6.20;;;5.60;;
12290;SDS011;6208;48.956;9.076;2023-04-29T14:22:05;6.50;;;5.95;;
12290;SDS011;6208;48.956;9.076;2023-04-29T14:24:49;6.63;;;6.07;;
12290;SDS011;6208;48.956;9.076;2023-04-29T14:27:33;6.82;;;6.15;;
12290;SDS011;6208;48.956;9.076;2023-04-29T14:30:19;6.28;;;5.68;;
12290;SDS011;6208;48.956;9.076;2023-04-29T14:33:03;5.43;;;5.00;;
12290;SDS011;6208;48.956;9.076;2023-04-29T14:35:47;6.22;;;5.72;;
12290;SDS011;6208;48.956;9.076;2023-04-29T14:38:31;6.00;;;5.50;;
12290;SDS011;6208;48.956;9.076;2023-04-29T14:41:15;6.57;;;5.97;;
12290;SDS011;6208;48.956;9.076;2023-04-29T14:44:00;6.35;;;5.72;;
12290;SDS011;6208;48.956;9.076;2023-04-29T14:46:44;6.35;;;5.78;;
12290;SDS011;6208;48.956;9.076;2023-04-29T14:49:28;6.05;;;5.55;;
12290;SDS011;6208;48.956;9.076;2023-04-29T14:52:13;5.88;;;5.32;;
12290;SDS011;6208;48.956;9.076;2023-04-29T14:54:57;5.53;;;5.13;;
12290;SDS011;6208;48.956;9.076;2023-04-29T14:57:41;6.03;;;5.50;;
12290;SDS011;6208;48.956;9.076;2023-04-29T15:00:25;5.70;;;5.30;;
12290;SDS011;6208;48.956;9.076;2023-04-29T15:03:09;5.97;;;5.47;;
12290;SDS011;6208;48.956;9.076;2023-04-29T15:05:54;5.25;;;4.85;;
12290;SDS011;6208;48.956;9.076;2023-04-29T15:08:40;5.85;;;5.28;;
12290;SDS011;6208;48.956;9.076;2023-04-29T15:11:24;5.90;;;5.30;;
12290;SDS011;6208;48.956;9.076;2023-04-29T15:14:09;5.30;;;4.80;;
12290;SDS011;6208;48.956;9.076;2023-04-29T15:16:53;5.22;;;4.70;;
12290;SDS011;6208;48.956;9.076;2023-04-29T15:19:37;5.50;;;4.97;;
12290;SDS011;6208;48.956;9.076;2023-04-29T15:22:21;5.95;;;5.40;;
12290;SDS011;6208;48.956;9.076;2023-04-29T15:25:08;5.28;;;4.88;;
12290;SDS011;6208;48.956;9.076;2023-04-29T15:27:52;6.38;;;5.78;;
12290;SDS011;6208;48.956;9.076;2023-04-29T15:30:37;5.55;;;5.13;;
12290;SDS011;6208;48.956;9.076;2023-04-29T15:33:21;13.05;;;5.40;;
12290;SDS011;6208;48.956;9.076;2023-04-29T15:36:06;5.45;;;4.95;;
12290;SDS011;6208;48.956;9.076;2023-04-29T15:38:50;5.53;;;5.13;;
12290;SDS011;6208;48.956;9.076;2023-04-29T15:41:34;5.10;;;4.70;;
12290;SDS011;6208;48.956;9.076;2023-04-29T15:44:19;4.80;;;4.47;;
12290;SDS011;6208;48.956;9.076;2023-04-29T15:47:03;4.72;;;4.40;;
12290;SDS011;6208;48.956;9.076;2023-04-29T15:49:48;5.90;;;5.32;;
12290;SDS011;6208;48.956;9.076;2023-04-29T15:52:34;5.53;;;5.05;;
12290;SDS011;6208;48.956;9.076;2023-04-29T15:55:20;5.38;;;4.65;;
12290;SDS011;6208;48.956;9.076;2023-04-29T15:58:08;5.00;;;4.60;;
12290;SDS011;6208;48.956;9.076;2023-04-29T16:00:52;4.50;;;4.20;;
12290;SDS011;6208;48.956;9.076;2023-04-29T16:03:36;5.03;;;4.63;;
12290;SDS011;6208;48.956;9.076;2023-04-29T16:06:20;4.97;;;4.63;;
12290;SDS011;6208;48.956;9.076;2023-04-29T16:09:04;4.53;;;4.22;;
12290;SDS011;6208;48.956;9.076;2023-04-29T16:11:48;5.05;;;4.57;;
12290;SDS011;6208;48.956;9.076;2023-04-29T16:14:36;4.90;;;4.40;;
12290;SDS011;6208;48.956;9.076;2023-04-29T16:17:20;5.25;;;4.75;;
12290;SDS011;6208;48.956;9.076;2023-04-29T16:20:04;5.15;;;4.75;;
12290;SDS011;6208;48.956;9.076;2023-04-29T16:22:49;4.38;;;4.07;;
12290;SDS011;6208;48.956;9.076;2023-04-29T16:25:33;4.80;;;4.40;;
12290;SDS011;6208;48.956;9.076;2023-04-29T16:28:17;4.50;;;4.10;;
12290;SDS011;6208;48.956;9.076;2023-04-29T16:31:01;4.82;;;4.53;;
12290;SDS011;6208;48.956;9.076;2023-04-29T16:33:46;4.93;;;4.53;;
12290;SDS011;6208;48.956;9.076;2023-04-29T16:36:30;5.78;;;4.50;;
12290;SDS011;6208;48.956;9.076;2023-04-29T16:39:15;4.90;;;4.60;;
12290;SDS011;6208;48.956;9.076;2023-04-29T16:41:59;4.40;;;4.10;;
12290;SDS011;6208;48.956;9.076;2023-04-29T16:44:44;5.00;;;4.63;;
12290;SDS011;6208;48.956;9.076;2023-04-29T16:47:28;4.45;;;4.13;;
12290;SDS011;6208;48.956;9.076;2023-04-29T16:50:12;4.85;;;4.50;;
12290;SDS011;6208;48.956;9.076;2023-04-29T16:53:00;5.78;;;5.18;;
12290;SDS011;6208;48.956;9.076;2023-04-29T16:55:46;4.63;;;4.28;;
12290;SDS011;6208;48.956;9.076;2023-04-29T16:58:31;4.72;;;4.43;;
12290;SDS011;6208;48.956;9.076;2023-04-29T17:01:16;4.97;;;4.47;;